createdAt,value
2022-09-16T00:00:04.755Z,9.70
2022-09-16T00:01:04.806Z,12.20
2022-09-16T00:02:04.803Z,9.90
2022-09-16T00:03:04.742Z,10.50
2022-09-16T00:04:04.724Z,11.80
2022-09-16T00:05:04.774Z,10.10
2022-09-16T00:06:04.679Z,10.60
2022-09-16T00:07:04.686Z,9.40
2022-09-16T00:08:04.665Z,10.10
2022-09-16T00:09:04.699Z,9.70
2022-09-16T00:10:04.637Z,9.60
2022-09-16T00:11:04.633Z,9.60
2022-09-16T00:12:04.644Z,9.80
2022-09-16T00:13:04.620Z,10.20
2022-09-16T00:14:04.681Z,9.40
2022-09-16T00:15:04.576Z,9.20
2022-09-16T00:16:04.642Z,9.70
2022-09-16T00:17:04.585Z,9.50
2022-09-16T00:18:04.557Z,9.60
2022-09-16T00:19:04.531Z,9.40
2022-09-16T00:20:04.516Z,9.50
2022-09-16T00:21:04.525Z,10.10
2022-09-16T00:22:04.506Z,9.60
2022-09-16T00:23:04.519Z,9.90
2022-09-16T00:24:04.512Z,8.50
2022-09-16T00:25:04.555Z,9.50
2022-09-16T00:26:04.472Z,10.70
2022-09-16T00:27:04.453Z,9.50
2022-09-16T00:28:04.474Z,11.30
2022-09-16T00:29:04.474Z,11.00
2022-09-16T00:30:04.405Z,10.20
2022-09-16T00:31:04.499Z,12.00
2022-09-16T00:32:04.385Z,10.70
2022-09-16T00:33:04.391Z,10.90
2022-09-16T00:34:04.412Z,10.10
2022-09-16T00:35:04.472Z,10.80
2022-09-16T00:36:04.370Z,11.80
2022-09-16T00:37:04.346Z,11.40
2022-09-16T00:38:04.324Z,12.00
2022-09-16T00:39:04.368Z,11.50
2022-09-16T00:40:04.363Z,10.80
2022-09-16T00:41:04.303Z,11.60
2022-09-16T00:42:04.276Z,10.80
2022-09-16T00:43:04.318Z,11.30
2022-09-16T00:44:04.312Z,9.90
2022-09-16T00:45:04.284Z,12.50
2022-09-16T00:46:04.252Z,12.80
2022-09-16T00:47:04.277Z,13.30
2022-09-16T00:48:04.251Z,13.00
2022-09-16T00:49:04.278Z,12.60
2022-09-16T00:50:04.237Z,12.90
2022-09-16T00:51:04.219Z,15.40
2022-09-16T00:52:04.186Z,14.70
2022-09-16T00:53:04.165Z,15.00
2022-09-16T00:54:04.203Z,14.70
2022-09-16T00:55:04.227Z,14.20
2022-09-16T00:56:04.117Z,13.00
2022-09-16T00:57:04.118Z,13.90
2022-09-16T00:58:04.098Z,14.30
2022-09-16T00:59:04.126Z,14.00
2022-09-16T01:00:04.102Z,13.40
2022-09-16T01:01:04.225Z,13.10
2022-09-16T01:02:04.126Z,12.60
2022-09-16T01:03:04.048Z,13.60
2022-09-16T01:04:04.064Z,13.00
2022-09-16T01:05:04.057Z,13.20
2022-09-16T01:06:04.023Z,13.70
2022-09-16T01:07:04.033Z,14.10
2022-09-16T01:08:04.113Z,13.70
2022-09-16T01:09:04.025Z,12.40
2022-09-16T01:10:03.971Z,12.00
2022-09-16T01:11:04.029Z,11.60
2022-09-16T01:12:03.939Z,14.20
2022-09-16T01:13:03.933Z,15.00
2022-09-16T01:14:03.986Z,13.00
2022-09-16T01:15:03.931Z,11.70
2022-09-16T01:16:03.988Z,10.70
2022-09-16T01:17:03.912Z,11.20
2022-09-16T01:18:03.907Z,10.90
2022-09-16T01:19:03.912Z,11.70
2022-09-16T01:20:03.883Z,10.70
2022-09-16T01:21:03.916Z,10.90
2022-09-16T01:22:03.829Z,10.90
2022-09-16T01:23:03.835Z,10.80
2022-09-16T01:24:03.817Z,11.00
2022-09-16T01:25:03.829Z,10.80
2022-09-16T01:26:03.789Z,10.10
2022-09-16T01:27:03.770Z,10.80
2022-09-16T01:28:03.758Z,10.40
2022-09-16T01:29:03.801Z,10.10
2022-09-16T01:30:03.759Z,10.00
2022-09-16T01:31:03.783Z,9.40
2022-09-16T01:32:03.735Z,10.70
2022-09-16T01:33:03.728Z,9.70
2022-09-16T01:34:03.706Z,9.40
2022-09-16T01:35:03.697Z,9.40
2022-09-16T01:36:03.741Z,12.60
2022-09-16T01:37:03.680Z,11.30
2022-09-16T01:38:03.664Z,12.50
2022-09-16T01:39:03.653Z,10.30
2022-09-16T01:40:03.727Z,11.00
2022-09-16T01:41:03.670Z,11.90
2022-09-16T01:42:03.669Z,11.70
2022-09-16T01:43:03.599Z,10.80
2022-09-16T01:44:03.587Z,10.70
2022-09-16T01:45:03.577Z,11.60
2022-09-16T01:46:03.798Z,12.20
2022-09-16T01:47:03.554Z,12.00
2022-09-16T01:48:03.562Z,11.00
2022-09-16T01:49:03.585Z,10.20
2022-09-16T01:50:03.607Z,10.00
2022-09-16T01:51:03.604Z,9.50
2022-09-16T01:52:03.493Z,9.80
2022-09-16T01:53:03.485Z,8.50
2022-09-16T01:54:03.525Z,9.40
2022-09-16T01:55:03.473Z,9.90
2022-09-16T01:56:03.459Z,10.00
2022-09-16T01:57:03.514Z,10.00
2022-09-16T01:58:03.423Z,9.90
2022-09-16T01:59:03.476Z,10.10
2022-09-16T02:00:03.410Z,10.10
2022-09-16T02:01:03.411Z,9.10
2022-09-16T02:02:03.578Z,9.10
2022-09-16T02:03:03.499Z,9.50
2022-09-16T02:04:03.417Z,9.30
2022-09-16T02:05:03.372Z,9.10
2022-09-16T02:06:03.364Z,8.70
2022-09-16T02:07:03.363Z,8.60
2022-09-16T02:08:03.345Z,8.20
2022-09-16T02:09:03.611Z,8.10
2022-09-16T02:10:03.301Z,8.10
2022-09-16T02:11:03.309Z,8.30
2022-09-16T02:12:03.286Z,7.90
2022-09-16T02:13:03.280Z,7.70
2022-09-16T02:14:03.295Z,7.80
2022-09-16T02:15:03.250Z,9.00
2022-09-16T02:16:03.304Z,8.50
2022-09-16T02:17:03.235Z,8.50
2022-09-16T02:18:03.251Z,8.30
2022-09-16T02:19:03.215Z,7.70
2022-09-16T02:20:03.211Z,7.60
2022-09-16T02:21:03.224Z,7.50
2022-09-16T02:22:03.200Z,8.40
2022-09-16T02:23:03.166Z,9.30
2022-09-16T02:24:03.149Z,8.20
2022-09-16T02:25:03.124Z,7.50
2022-09-16T02:26:03.193Z,7.20
2022-09-16T02:27:03.129Z,7.50
2022-09-16T02:28:03.129Z,8.40
2022-09-16T02:29:03.092Z,7.80
2022-09-16T02:30:03.080Z,8.10
2022-09-16T02:31:03.104Z,8.10
2022-09-16T02:32:03.105Z,8.40
2022-09-16T02:33:03.062Z,7.50
2022-09-16T02:34:03.059Z,8.10
2022-09-16T02:35:03.030Z,8.70
2022-09-16T02:36:03.126Z,8.40
2022-09-16T02:37:03.041Z,8.30
2022-09-16T02:38:02.998Z,8.40
2022-09-16T02:39:03.280Z,8.60
2022-09-16T02:40:03.045Z,8.20
2022-09-16T02:41:02.950Z,7.90
2022-09-16T02:42:02.944Z,8.20
2022-09-16T02:43:02.929Z,7.20
2022-09-16T02:44:02.974Z,7.00
2022-09-16T02:45:02.926Z,6.80
2022-09-16T02:46:02.970Z,4.40
2022-09-16T02:47:02.901Z,4.90
2022-09-16T02:48:02.873Z,4.90
2022-09-16T02:49:02.868Z,5.10
2022-09-16T02:50:02.898Z,4.90
2022-09-16T02:51:02.849Z,5.10
2022-09-16T02:52:02.837Z,4.90
2022-09-16T02:53:02.830Z,4.80
2022-09-16T02:54:02.826Z,4.90
2022-09-16T02:55:02.867Z,5.00
2022-09-16T02:56:02.799Z,5.10
2022-09-16T02:57:02.791Z,5.10
2022-09-16T02:58:02.778Z,5.20
2022-09-16T02:59:02.757Z,5.10
2022-09-16T03:00:02.764Z,5.20
2022-09-16T03:01:02.786Z,5.50
2022-09-16T03:02:02.838Z,5.20
2022-09-16T03:03:02.774Z,5.30
2022-09-16T03:04:02.705Z,5.20
2022-09-16T03:05:02.680Z,5.70
2022-09-16T03:06:02.709Z,5.80
2022-09-16T03:07:02.656Z,5.80
2022-09-16T03:08:02.695Z,5.60
2022-09-16T03:09:02.651Z,5.80
2022-09-16T03:10:02.644Z,5.50
2022-09-16T03:11:02.621Z,5.40
2022-09-16T03:12:02.675Z,5.50
2022-09-16T03:13:02.595Z,5.70
2022-09-16T03:14:02.613Z,6.10
2022-09-16T03:15:02.584Z,5.50
2022-09-16T03:16:02.640Z,6.10
2022-09-16T03:17:02.588Z,6.60
2022-09-16T03:18:02.569Z,5.90
2022-09-16T03:19:02.550Z,5.50
2022-09-16T03:20:02.578Z,5.20
2022-09-16T03:21:02.523Z,5.50
2022-09-16T03:22:02.525Z,5.70
2022-09-16T03:23:02.476Z,5.90
2022-09-16T03:24:02.486Z,5.20
2022-09-16T03:25:02.495Z,5.30
2022-09-16T03:26:02.450Z,5.60
2022-09-16T03:27:02.473Z,5.40
2022-09-16T03:28:02.444Z,6.00
2022-09-16T03:29:02.423Z,6.90
2022-09-16T03:30:02.430Z,6.70
2022-09-16T03:31:02.469Z,6.30
2022-09-16T03:32:02.415Z,6.60
2022-09-16T03:33:02.396Z,6.80
2022-09-16T03:34:02.383Z,6.30
2022-09-16T03:35:02.395Z,6.50
2022-09-16T03:36:02.348Z,6.00
2022-09-16T03:37:02.346Z,5.60
2022-09-16T03:38:02.384Z,5.20
2022-09-16T03:39:02.358Z,5.20
2022-09-16T03:40:02.383Z,5.30
2022-09-16T03:41:02.327Z,5.60
2022-09-16T03:42:02.283Z,4.90
2022-09-16T03:43:02.268Z,5.40
2022-09-16T03:44:04.181Z,4.70
2022-09-16T03:45:02.304Z,5.00
2022-09-16T03:46:02.301Z,5.20
2022-09-16T03:47:02.235Z,5.00
2022-09-16T03:48:02.209Z,5.50
2022-09-16T03:49:02.222Z,5.30
2022-09-16T03:50:02.189Z,4.90
2022-09-16T03:51:02.183Z,5.10
2022-09-16T03:52:02.182Z,5.40
2022-09-16T03:53:02.193Z,5.20
2022-09-16T03:54:02.178Z,5.50
2022-09-16T03:55:02.264Z,5.70
2022-09-16T03:56:02.149Z,5.50
2022-09-16T03:57:02.138Z,5.60
2022-09-16T03:58:02.111Z,5.10
2022-09-16T03:59:02.130Z,5.00
2022-09-16T04:00:02.103Z,5.40
2022-09-16T04:01:02.107Z,4.80
2022-09-16T04:02:02.098Z,5.10
2022-09-16T04:03:02.084Z,5.30
2022-09-16T04:04:02.062Z,5.10
2022-09-16T04:05:02.125Z,5.10
2022-09-16T04:06:02.020Z,5.20
2022-09-16T04:07:02.061Z,5.10
2022-09-16T04:08:02.036Z,5.40
2022-09-16T04:09:02.027Z,5.30
2022-09-16T04:10:02.010Z,6.00
2022-09-16T04:11:02.010Z,5.70
2022-09-16T04:12:01.967Z,5.60
2022-09-16T04:13:01.956Z,6.30
2022-09-16T04:14:02.001Z,5.90
2022-09-16T04:15:01.920Z,6.20
2022-09-16T04:16:01.963Z,6.70
2022-09-16T04:17:01.896Z,6.90
2022-09-16T04:18:01.912Z,7.00
2022-09-16T04:19:01.886Z,7.50
2022-09-16T04:20:01.860Z,7.90
2022-09-16T04:21:01.898Z,8.00
2022-09-16T04:22:01.847Z,8.60
2022-09-16T04:23:01.835Z,8.50
2022-09-16T04:24:01.841Z,7.60
2022-09-16T04:25:01.856Z,7.90
2022-09-16T04:26:01.794Z,6.40
2022-09-16T04:27:01.776Z,6.10
2022-09-16T04:28:01.766Z,6.30
2022-09-16T04:29:01.812Z,7.50
2022-09-16T04:30:01.753Z,7.70
2022-09-16T04:31:01.814Z,7.50
2022-09-16T04:32:01.722Z,7.50
2022-09-16T04:33:01.729Z,8.50
2022-09-16T04:34:01.745Z,8.70
2022-09-16T04:35:01.690Z,7.80
2022-09-16T04:36:01.678Z,7.80
2022-09-16T04:37:01.709Z,8.60
2022-09-16T04:38:01.656Z,8.90
2022-09-16T04:39:01.680Z,9.00
2022-09-16T04:40:04.700Z,9.20
2022-09-16T04:41:01.622Z,8.20
2022-09-16T04:42:01.617Z,8.30
2022-09-16T04:43:01.648Z,8.60
2022-09-16T04:44:01.665Z,8.10
2022-09-16T04:45:01.597Z,8.30
2022-09-16T04:46:01.649Z,9.00
2022-09-16T04:47:01.583Z,9.10
2022-09-16T04:48:01.586Z,9.10
2022-09-16T04:49:01.569Z,9.10
2022-09-16T04:50:01.533Z,9.50
2022-09-16T04:51:01.517Z,9.20
2022-09-16T04:52:01.538Z,9.70
2022-09-16T04:53:01.493Z,9.80
2022-09-16T04:54:01.514Z,9.20
2022-09-16T04:55:01.524Z,8.60
2022-09-16T04:56:01.468Z,8.70
2022-09-16T04:57:01.471Z,8.10
2022-09-16T04:58:01.473Z,7.90
2022-09-16T04:59:01.515Z,8.10
2022-09-16T05:00:01.457Z,7.50
2022-09-16T05:01:01.562Z,7.50
2022-09-16T05:02:01.536Z,7.90
2022-09-16T05:03:01.402Z,7.20
2022-09-16T05:04:01.416Z,7.40
2022-09-16T05:05:01.365Z,7.10
2022-09-16T05:06:01.383Z,8.10
2022-09-16T05:07:01.463Z,7.50
2022-09-16T05:08:01.326Z,7.30
2022-09-16T05:09:01.350Z,7.90
2022-09-16T05:10:01.339Z,7.30
2022-09-16T05:11:01.301Z,7.60
2022-09-16T05:12:01.287Z,7.50
2022-09-16T05:13:01.277Z,8.00
2022-09-16T05:14:01.416Z,7.80
2022-09-16T05:15:01.253Z,8.00
2022-09-16T05:16:01.347Z,8.30
2022-09-16T05:17:01.351Z,7.80
2022-09-16T05:18:01.238Z,9.70
2022-09-16T05:19:01.278Z,7.90
2022-09-16T05:20:01.211Z,8.50
2022-09-16T05:21:01.194Z,8.90
2022-09-16T05:22:01.215Z,8.70
2022-09-16T05:23:01.233Z,9.30
2022-09-16T05:24:01.174Z,9.20
2022-09-16T05:25:01.165Z,9.40
2022-09-16T05:26:01.134Z,9.00
2022-09-16T05:27:01.143Z,9.20
2022-09-16T05:28:01.158Z,9.10
2022-09-16T05:29:01.145Z,9.30
2022-09-16T05:30:01.135Z,10.40
2022-09-16T05:31:01.157Z,9.40
2022-09-16T05:32:01.081Z,10.20
2022-09-16T05:33:01.179Z,10.20
2022-09-16T05:34:01.112Z,10.00
2022-09-16T05:35:01.032Z,10.60
2022-09-16T05:36:01.102Z,10.40
2022-09-16T05:37:01.018Z,10.00
2022-09-16T05:38:01.017Z,9.30
2022-09-16T05:39:27.856Z,10.30
2022-09-16T05:40:02.099Z,9.90
2022-09-16T05:41:00.996Z,10.10
2022-09-16T05:42:01.093Z,9.40
2022-09-16T05:43:00.984Z,9.50
2022-09-16T05:44:00.965Z,8.70
2022-09-16T05:45:00.945Z,8.10
2022-09-16T05:46:01.024Z,8.70
2022-09-16T05:47:00.999Z,8.90
2022-09-16T05:48:00.900Z,8.30
2022-09-16T05:49:01.119Z,9.20
2022-09-16T05:50:00.913Z,8.30
2022-09-16T05:51:00.868Z,9.80
2022-09-16T05:52:00.945Z,10.10
2022-09-16T05:53:00.844Z,10.40
2022-09-16T05:54:00.872Z,10.40
2022-09-16T05:55:00.869Z,9.90
2022-09-16T05:56:01.475Z,9.40
2022-09-16T05:57:04.649Z,9.20
2022-09-16T05:58:01.866Z,9.40
2022-09-16T05:59:00.826Z,9.60
2022-09-16T06:00:00.759Z,9.50
2022-09-16T06:01:00.760Z,8.90
2022-09-16T06:02:00.889Z,9.40
2022-09-16T06:03:00.807Z,9.00
2022-09-16T06:04:00.759Z,8.60
2022-09-16T06:05:00.877Z,7.60
2022-09-16T06:06:00.713Z,8.20
2022-09-16T06:07:00.708Z,8.60
2022-09-16T06:08:00.705Z,9.20
2022-09-16T06:09:00.783Z,8.00
2022-09-16T06:10:00.684Z,8.50
2022-09-16T06:11:00.654Z,9.90
2022-09-16T06:12:02.236Z,9.60
2022-09-16T06:13:00.645Z,8.70
2022-09-16T06:14:00.620Z,8.90
2022-09-16T06:15:00.665Z,9.40
2022-09-16T06:16:00.650Z,8.20
2022-09-16T06:17:00.596Z,8.70
2022-09-16T06:18:05.581Z,8.60
2022-09-16T06:19:01.569Z,8.40
2022-09-16T06:20:00.590Z,9.70
2022-09-16T06:21:00.683Z,9.40
2022-09-16T06:22:00.554Z,7.90
2022-09-16T06:23:00.532Z,8.40
2022-09-16T06:24:00.545Z,8.30
2022-09-16T06:25:00.555Z,8.10
2022-09-16T06:26:00.494Z,10.20
2022-09-16T06:27:00.474Z,9.90
2022-09-16T06:28:00.486Z,8.60
2022-09-16T06:29:00.671Z,8.50
2022-09-16T06:30:00.539Z,8.10
2022-09-16T06:31:00.581Z,8.70
2022-09-16T06:32:00.536Z,10.30
2022-09-16T06:33:00.428Z,11.70
2022-09-16T06:34:00.446Z,10.90
2022-09-16T06:35:00.453Z,11.40
2022-09-16T06:36:00.386Z,9.60
2022-09-16T06:37:00.500Z,10.70
2022-09-16T06:38:00.396Z,9.60
2022-09-16T06:39:00.347Z,10.30
2022-09-16T06:40:00.443Z,9.00
2022-09-16T06:41:00.430Z,9.20
2022-09-16T06:42:00.312Z,9.30
2022-09-16T06:43:00.472Z,8.50
2022-09-16T06:44:00.323Z,9.40
2022-09-16T06:45:00.303Z,8.80
2022-09-16T06:46:00.355Z,8.30
2022-09-16T06:47:00.264Z,8.40
2022-09-16T06:48:00.269Z,9.10
2022-09-16T06:49:04.563Z,8.40
2022-09-16T06:50:01.263Z,8.10
2022-09-16T06:51:00.339Z,8.00
2022-09-16T06:52:00.222Z,8.60
2022-09-16T06:53:00.319Z,7.90
2022-09-16T06:54:00.391Z,8.10
2022-09-16T06:55:00.197Z,8.60
2022-09-16T06:56:00.217Z,8.70
2022-09-16T06:57:00.185Z,8.20
2022-09-16T06:58:00.141Z,8.20
2022-09-16T06:59:00.297Z,8.30
2022-09-16T07:00:00.147Z,9.50
2022-09-16T07:01:00.209Z,9.40
2022-09-16T07:02:00.213Z,9.20
2022-09-16T07:03:00.093Z,8.50
2022-09-16T07:04:00.108Z,9.20
2022-09-16T07:05:00.122Z,8.70
2022-09-16T07:06:00.039Z,10.20
2022-09-16T07:07:15.549Z,10.50
2022-09-16T07:08:01.053Z,11.90
2022-09-16T07:09:00.152Z,11.90
2022-09-16T07:10:00.001Z,11.60
2022-09-16T07:11:00.066Z,10.90
2022-09-16T07:11:59.982Z,12.20
2022-09-16T07:13:00.085Z,12.30
2022-09-16T07:14:00.081Z,13.00
2022-09-16T07:14:59.961Z,12.40
2022-09-16T07:16:12.780Z,13.60
2022-09-16T07:17:01.073Z,13.30
2022-09-16T07:17:59.983Z,12.30
2022-09-16T07:19:01.058Z,14.40
2022-09-16T07:19:59.898Z,13.60
2022-09-16T07:20:59.878Z,13.90
2022-09-16T07:21:59.906Z,13.20
2022-09-16T07:22:59.876Z,13.80
2022-09-16T07:23:59.868Z,13.20
2022-09-16T07:24:59.962Z,13.10
2022-09-16T07:25:59.865Z,12.90
2022-09-16T07:26:59.835Z,13.60
2022-09-16T07:27:59.846Z,12.60
2022-09-16T07:28:59.846Z,12.80
2022-09-16T07:30:00.376Z,12.10
2022-09-16T07:30:59.881Z,12.40
2022-09-16T07:31:59.815Z,11.60
2022-09-16T07:32:59.772Z,12.70
2022-09-16T07:34:03.655Z,13.10
2022-09-16T07:34:59.757Z,12.50
2022-09-16T07:35:59.724Z,12.10
2022-09-16T07:36:59.735Z,11.10
2022-09-16T07:37:59.949Z,10.40
2022-09-16T07:38:59.780Z,11.00
2022-09-16T07:39:59.747Z,11.40
2022-09-16T07:40:59.784Z,10.40
2022-09-16T07:42:03.845Z,9.20
2022-09-16T07:43:00.719Z,8.90
2022-09-16T07:43:59.663Z,8.70
2022-09-16T07:44:59.751Z,7.90
2022-09-16T07:45:59.701Z,6.40
2022-09-16T07:46:59.611Z,6.40
2022-09-16T07:47:59.657Z,5.80
2022-09-16T07:48:59.630Z,5.70
2022-09-16T07:49:59.604Z,5.50
2022-09-16T07:50:59.585Z,5.30
2022-09-16T07:51:59.563Z,5.30
2022-09-16T07:52:59.569Z,5.50
2022-09-16T07:53:59.567Z,5.70
2022-09-16T07:54:59.569Z,5.60
2022-09-16T07:55:59.511Z,5.30
2022-09-16T07:56:59.629Z,5.10
2022-09-16T07:57:59.533Z,5.30
2022-09-16T07:58:59.525Z,5.00
2022-09-16T07:59:59.504Z,4.80
2022-09-16T08:01:04.011Z,4.80
2022-09-16T08:02:00.580Z,4.90
2022-09-16T08:02:59.533Z,5.10
2022-09-16T08:03:59.425Z,4.90
2022-09-16T08:04:59.435Z,4.40
2022-09-16T08:05:59.492Z,4.20
2022-09-16T08:06:59.414Z,4.40
2022-09-16T08:07:59.443Z,4.30
2022-09-16T08:09:05.794Z,4.10
2022-09-16T08:10:00.442Z,4.20
2022-09-16T08:10:59.359Z,4.30
2022-09-16T08:11:59.338Z,4.30
2022-09-16T08:12:59.445Z,3.70
2022-09-16T08:13:59.391Z,3.80
2022-09-16T08:14:59.338Z,3.50
2022-09-16T08:15:59.301Z,3.10
2022-09-16T08:16:59.367Z,3.10
2022-09-16T08:17:59.283Z,3.10
2022-09-16T08:18:59.356Z,2.70
2022-09-16T08:19:59.290Z,3.10
2022-09-16T08:20:59.247Z,3.00
2022-09-16T08:21:59.438Z,3.40
2022-09-16T08:22:59.216Z,3.30
2022-09-16T08:23:59.216Z,3.50
2022-09-16T08:24:59.309Z,3.30
2022-09-16T08:25:59.254Z,3.10
2022-09-16T08:26:59.219Z,1.80
2022-09-16T08:27:59.175Z,1.80
2022-09-16T08:29:10.405Z,1.70
2022-09-16T08:30:00.167Z,1.70
2022-09-16T08:30:59.178Z,1.90
2022-09-16T08:31:59.142Z,1.70
2022-09-16T08:32:59.176Z,1.60
2022-09-16T08:33:59.138Z,1.40
2022-09-16T08:34:59.086Z,1.40
2022-09-16T08:35:59.184Z,1.20
2022-09-16T08:36:59.091Z,1.30
2022-09-16T08:37:59.082Z,1.40
2022-09-16T08:38:59.050Z,1.40
2022-09-16T08:39:59.171Z,1.20
2022-09-16T08:40:59.029Z,1.20
2022-09-16T08:41:59.153Z,1.40
2022-09-16T08:42:59.021Z,1.70
2022-09-16T08:43:58.996Z,1.50
2022-09-16T08:44:59.101Z,1.30
2022-09-16T08:45:59.020Z,1.30
2022-09-16T08:46:58.972Z,1.30
2022-09-16T08:47:59.046Z,1.40
2022-09-16T08:48:58.935Z,1.40
2022-09-16T08:49:58.994Z,1.50
2022-09-16T08:50:58.921Z,1.70
2022-09-16T08:51:58.904Z,1.70
2022-09-16T08:52:58.885Z,1.70
2022-09-16T08:53:58.990Z,1.70
2022-09-16T08:54:58.907Z,1.60
2022-09-16T08:55:58.874Z,1.80
2022-09-16T08:56:58.846Z,1.80
2022-09-16T08:57:58.834Z,1.60
2022-09-16T08:58:58.927Z,1.60
2022-09-16T08:59:58.841Z,1.80
2022-09-16T09:00:58.973Z,1.80
2022-09-16T09:01:59.889Z,1.60
2022-09-16T09:02:58.913Z,1.50
2022-09-16T09:03:58.825Z,1.90
2022-09-16T09:04:58.942Z,1.80
2022-09-16T09:05:58.768Z,1.60
2022-09-16T09:06:58.872Z,1.50
2022-09-16T09:07:58.734Z,1.50
2022-09-16T09:08:58.748Z,1.60
2022-09-16T09:09:58.708Z,1.60
2022-09-16T09:10:58.756Z,1.50
2022-09-16T09:11:58.683Z,1.60
2022-09-16T09:12:59.779Z,1.70
2022-09-16T09:13:58.908Z,1.70
2022-09-16T09:14:58.665Z,2.00
2022-09-16T09:15:58.667Z,1.90
2022-09-16T09:16:58.764Z,1.70
2022-09-16T09:17:58.758Z,1.90
2022-09-16T09:18:58.598Z,2.10
2022-09-16T09:19:58.586Z,2.90
2022-09-16T09:20:58.676Z,2.50
2022-09-16T09:21:58.585Z,2.10
2022-09-16T09:22:58.557Z,2.30
2022-09-16T09:23:58.580Z,1.80
2022-09-16T09:24:58.533Z,2.20
2022-09-16T09:25:58.547Z,1.70
2022-09-16T09:26:58.509Z,2.10
2022-09-16T09:27:58.505Z,2.10
2022-09-16T09:28:58.533Z,2.00
2022-09-16T09:29:58.492Z,1.80
2022-09-16T09:30:58.500Z,1.80
2022-09-16T09:31:58.511Z,1.90
2022-09-16T09:32:58.631Z,2.10
2022-09-16T09:33:58.449Z,2.10
2022-09-16T09:34:58.422Z,1.90
2022-09-16T09:35:58.506Z,1.90
2022-09-16T09:36:58.405Z,1.80
2022-09-16T09:37:58.446Z,2.20
2022-09-16T09:38:58.382Z,2.20
2022-09-16T09:39:58.419Z,2.60
2022-09-16T09:40:58.388Z,2.00
2022-09-16T09:41:58.388Z,2.00
2022-09-16T09:42:58.360Z,2.00
2022-09-16T09:43:58.321Z,2.20
2022-09-16T09:45:01.404Z,2.20
2022-09-16T09:45:58.346Z,2.20
2022-09-16T09:46:58.390Z,2.30
2022-09-16T09:47:58.282Z,2.40
2022-09-16T09:48:58.398Z,2.40
2022-09-16T09:49:58.268Z,2.40
2022-09-16T09:50:58.248Z,2.50
2022-09-16T09:51:58.256Z,2.40
2022-09-16T09:52:58.221Z,2.20
2022-09-16T09:53:58.224Z,1.90
2022-09-16T09:54:58.220Z,2.40
2022-09-16T09:55:58.184Z,2.70
2022-09-16T09:56:58.200Z,2.00
2022-09-16T09:57:58.170Z,2.30
2022-09-16T09:58:58.167Z,2.30
2022-09-16T09:59:58.169Z,2.70
2022-09-16T10:00:58.197Z,2.20
2022-09-16T10:01:58.225Z,2.20
2022-09-16T10:02:58.109Z,2.40
2022-09-16T10:03:58.175Z,2.20
2022-09-16T10:04:58.218Z,2.10
2022-09-16T10:05:58.077Z,2.60
2022-09-16T10:06:58.089Z,2.30
2022-09-16T10:07:58.083Z,2.20
2022-09-16T10:08:58.055Z,2.60
2022-09-16T10:09:58.030Z,2.70
2022-09-16T10:10:58.021Z,3.30
2022-09-16T10:11:58.032Z,2.50
2022-09-16T10:12:58.042Z,2.40
2022-09-16T10:13:58.025Z,2.30
2022-09-16T10:14:57.970Z,2.50
2022-09-16T10:15:57.995Z,3.40
2022-09-16T10:16:57.946Z,2.70
2022-09-16T10:17:57.950Z,3.40
2022-09-16T10:18:57.979Z,3.10
2022-09-16T10:19:57.926Z,2.80
2022-09-16T10:20:58.039Z,2.40
2022-09-16T10:21:57.899Z,3.10
2022-09-16T10:22:57.907Z,2.80
2022-09-16T10:23:57.932Z,2.80
2022-09-16T10:24:57.902Z,2.50
2022-09-16T10:25:57.882Z,2.60
2022-09-16T10:26:57.870Z,2.20
2022-09-16T10:27:57.825Z,2.40
2022-09-16T10:28:58.038Z,2.40
2022-09-16T10:29:57.838Z,2.60
2022-09-16T10:30:57.809Z,3.30
2022-09-16T10:31:57.903Z,2.80
2022-09-16T10:32:57.815Z,2.60
2022-09-16T10:33:57.782Z,3.00
2022-09-16T10:34:57.874Z,3.10
2022-09-16T10:35:57.780Z,2.60
2022-09-16T10:36:57.846Z,2.50
2022-09-16T10:37:57.720Z,2.30
2022-09-16T10:39:02.279Z,2.20
2022-09-16T10:39:59.191Z,2.40
2022-09-16T10:40:57.813Z,2.50
2022-09-16T10:41:57.675Z,2.60
2022-09-16T10:42:57.697Z,2.50
2022-09-16T10:43:57.693Z,2.20
2022-09-16T10:44:58.654Z,2.70
2022-09-16T10:45:57.722Z,3.10
2022-09-16T10:46:57.615Z,2.90
2022-09-16T10:47:57.743Z,2.40
2022-09-16T10:48:57.604Z,2.30
2022-09-16T10:49:57.627Z,2.60
2022-09-16T10:50:57.612Z,2.40
2022-09-16T10:51:57.589Z,2.70
2022-09-16T10:52:57.681Z,2.70
2022-09-16T10:53:57.637Z,2.20
2022-09-16T10:54:57.551Z,2.50
2022-09-16T10:55:57.525Z,2.70
2022-09-16T10:56:57.528Z,2.80
2022-09-16T10:57:57.502Z,2.80
2022-09-16T10:58:57.703Z,2.70
2022-09-16T10:59:57.509Z,2.80
2022-09-16T11:00:57.605Z,2.80
2022-09-16T11:01:57.920Z,3.10
2022-09-16T11:02:57.446Z,2.80
2022-09-16T11:03:57.428Z,3.10
2022-09-16T11:04:57.477Z,3.30
2022-09-16T11:05:57.404Z,3.50
2022-09-16T11:06:57.396Z,3.30
2022-09-16T11:07:57.387Z,3.40
2022-09-16T11:08:57.524Z,3.30
2022-09-16T11:09:57.436Z,3.30
2022-09-16T11:10:57.490Z,3.10
2022-09-16T11:11:57.383Z,3.00
2022-09-16T11:12:57.374Z,3.00
2022-09-16T11:13:57.349Z,3.60
2022-09-16T11:14:57.353Z,3.60
2022-09-16T11:15:57.436Z,3.30
2022-09-16T11:16:57.300Z,2.80
2022-09-16T11:17:57.274Z,3.00
2022-09-16T11:18:57.302Z,3.20
2022-09-16T11:19:57.303Z,3.20
2022-09-16T11:20:57.263Z,3.10
2022-09-16T11:21:57.231Z,2.80
2022-09-16T11:22:57.295Z,3.00
2022-09-16T11:23:57.231Z,3.90
2022-09-16T11:24:57.321Z,4.20
2022-09-16T11:25:57.212Z,2.90
2022-09-16T11:26:57.197Z,3.30
2022-09-16T11:27:57.182Z,3.90
2022-09-16T11:28:57.227Z,4.20
2022-09-16T11:29:57.156Z,3.40
2022-09-16T11:30:57.207Z,3.50
2022-09-16T11:31:57.190Z,3.70
2022-09-16T11:32:59.827Z,3.50
2022-09-16T11:33:57.152Z,3.30
2022-09-16T11:34:57.086Z,3.40
2022-09-16T11:35:57.592Z,4.10
2022-09-16T11:36:57.137Z,3.90
2022-09-16T11:37:57.067Z,4.00
2022-09-16T11:38:57.095Z,4.40
2022-09-16T11:39:57.074Z,4.40
2022-09-16T11:40:57.165Z,4.40
2022-09-16T11:41:57.014Z,4.60
2022-09-16T11:42:57.021Z,4.10
2022-09-16T11:43:57.022Z,3.40
2022-09-16T11:44:56.994Z,4.30
2022-09-16T11:45:56.989Z,5.00
2022-09-16T11:46:57.071Z,4.10
2022-09-16T11:47:56.954Z,4.00
2022-09-16T11:48:56.966Z,3.90
2022-09-16T11:49:56.955Z,4.20
2022-09-16T11:50:56.948Z,3.80
2022-09-16T11:51:56.908Z,3.80
2022-09-16T11:53:01.649Z,3.20
2022-09-16T11:53:58.331Z,3.40
2022-09-16T11:54:56.935Z,3.10
2022-09-16T11:55:56.860Z,3.50
2022-09-16T11:56:57.003Z,2.80
2022-09-16T11:57:56.862Z,4.30
2022-09-16T11:58:56.856Z,4.50
2022-09-16T11:59:56.845Z,5.30
2022-09-16T12:00:56.818Z,5.00
2022-09-16T12:01:56.914Z,3.50
2022-09-16T12:02:56.833Z,3.40
2022-09-16T12:03:56.824Z,3.10
2022-09-16T12:04:56.803Z,3.60
2022-09-16T12:05:56.780Z,3.80
2022-09-16T12:06:56.743Z,3.60
2022-09-16T12:07:56.773Z,3.70
2022-09-16T12:08:56.718Z,3.90
2022-09-16T12:09:56.737Z,3.90
2022-09-16T12:10:56.726Z,3.50
2022-09-16T12:11:56.705Z,3.70
2022-09-16T12:12:56.811Z,3.40
2022-09-16T12:14:05.366Z,3.60
2022-09-16T12:15:01.966Z,4.60
2022-09-16T12:15:57.645Z,4.40
2022-09-16T12:16:56.631Z,5.70
2022-09-16T12:17:56.667Z,5.80
2022-09-16T12:18:56.645Z,5.70
2022-09-16T12:19:56.629Z,6.20
2022-09-16T12:20:56.664Z,5.40
2022-09-16T12:21:58.027Z,5.30
2022-09-16T12:22:56.607Z,4.20
2022-09-16T12:23:56.585Z,3.80
2022-09-16T12:24:56.561Z,3.70
2022-09-16T12:25:56.548Z,3.20
2022-09-16T12:26:56.564Z,3.40
2022-09-16T12:27:56.506Z,3.70
2022-09-16T12:28:56.631Z,3.60
2022-09-16T12:29:56.507Z,3.00
2022-09-16T12:30:56.522Z,3.00
2022-09-16T12:31:56.463Z,3.40
2022-09-16T12:32:56.486Z,3.90
2022-09-16T12:33:56.443Z,3.60
2022-09-16T12:34:56.457Z,3.30
2022-09-16T12:35:56.456Z,4.80
2022-09-16T12:36:56.433Z,3.70
2022-09-16T12:37:56.395Z,3.30
2022-09-16T12:38:56.383Z,3.30
2022-09-16T12:39:56.479Z,3.10
2022-09-16T12:40:56.379Z,3.40
2022-09-16T12:41:56.381Z,3.10
2022-09-16T12:42:56.349Z,3.50
2022-09-16T12:44:02.188Z,3.40
2022-09-16T12:44:57.495Z,3.30
2022-09-16T12:45:56.347Z,3.10
2022-09-16T12:46:56.387Z,3.40
2022-09-16T12:47:56.297Z,2.90
2022-09-16T12:48:56.281Z,3.20
2022-09-16T12:49:56.298Z,3.40
2022-09-16T12:50:56.272Z,3.40
2022-09-16T12:51:56.278Z,3.50
2022-09-16T12:52:56.238Z,3.10
2022-09-16T12:53:56.227Z,3.30
2022-09-16T12:55:07.618Z,3.20
2022-09-16T12:55:57.202Z,3.40
2022-09-16T12:56:56.197Z,3.50
2022-09-16T12:57:56.196Z,3.60
2022-09-16T12:58:56.253Z,3.20
2022-09-16T12:59:56.201Z,3.50
2022-09-16T13:00:56.306Z,4.10
2022-09-16T13:01:59.634Z,3.40
2022-09-16T13:02:56.222Z,3.40
2022-09-16T13:03:56.278Z,3.50
2022-09-16T13:04:56.388Z,3.50
2022-09-16T13:05:56.095Z,3.60
2022-09-16T13:06:56.099Z,3.60
2022-09-16T13:07:56.093Z,3.90
2022-09-16T13:08:56.075Z,4.00
2022-09-16T13:09:56.071Z,4.80
2022-09-16T13:11:05.932Z,4.30
2022-09-16T13:12:57.019Z,3.80
2022-09-16T13:13:56.026Z,3.40